Time;durP1;ratioP1;P1;durP2;ratioP2;P2;SDS_P1;SDS_P2;PMS_P1;PMS_P2;Temp;Humidity;BMP_temperature;BMP_pressure;BME280_temperature;BME280_humidity;BME280_pressure;Samples;Min_cycle;Max_cycle;Signal;HPM_P1;HPM_P2
2023/07/05 00:02:26;;;;;;;11.07;7.20;;;18.50;97.10;;;;;;4827563;29;20045;-92
2023/07/05 00:04:52;;;;;;;11.32;7.53;;;18.50;97.10;;;;;;4843977;29;20065;-91
2023/07/05 00:07:18;;;;;;;10.80;6.82;;;18.50;97.10;;;;;;4827449;29;20034;-92
2023/07/05 00:09:43;;;;;;;11.55;7.07;;;18.50;97.20;;;;;;4812473;29;20041;-92
2023/07/05 00:12:09;;;;;;;10.57;7.30;;;18.50;97.30;;;;;;4844070;29;20524;-92
2023/07/05 00:14:35;;;;;;;8.57;7.10;;;18.60;97.40;;;;;;4812247;29;20408;-92
2023/07/05 00:17:00;;;;;;;11.13;7.88;;;18.60;97.40;;;;;;4812415;29;20038;-92
2023/07/05 00:19:26;;;;;;;12.00;7.00;;;18.50;97.40;;;;;;4843805;29;20030;-91
2023/07/05 00:21:52;;;;;;;10.77;8.02;;;18.50;97.50;;;;;;4827581;29;20082;-92
2023/07/05 00:24:17;;;;;;;9.23;7.00;;;18.50;97.60;;;;;;4812544;29;20033;-91
2023/07/05 00:26:43;;;;;;;9.07;6.97;;;18.60;97.60;;;;;;4847233;29;20056;-91
2023/07/05 00:29:09;;;;;;;10.98;6.97;;;18.50;97.60;;;;;;4850233;29;20030;-91
2023/07/05 00:31:34;;;;;;;8.93;6.70;;;18.60;97.60;;;;;;4850587;29;20038;-91
2023/07/05 00:34:00;;;;;;;10.32;6.80;;;18.50;97.60;;;;;;4835309;29;20118;-91
2023/07/05 00:36:26;;;;;;;11.80;6.28;;;18.60;97.70;;;;;;4834763;29;20014;-91
2023/07/05 00:38:51;;;;;;;9.20;5.95;;;18.50;97.70;;;;;;4850379;29;20014;-91
2023/07/05 00:41:18;;;;;;;9.40;6.38;;;18.60;97.80;;;;;;4820638;29;20030;-91
2023/07/05 00:43:48;;;;;;;7.78;5.80;;;18.50;97.80;;;;;;4797685;29;20038;-94
2023/07/05 00:46:21;;;;;;;8.23;5.90;;;18.50;97.80;;;;;;4811987;29;20086;-90
2023/07/05 00:49:06;;;;;;;7.68;5.95;;;18.50;97.80;;;;;;4843374;29;20030;-94
2023/07/05 00:51:52;;;;;;;9.05;5.90;;;18.50;97.90;;;;;;4826784;29;20029;-92
2023/07/05 00:54:23;;;;;;;7.75;4.60;;;18.60;97.90;;;;;;4789434;29;1116629;-91
2023/07/05 00:57:05;;;;;;;6.65;4.70;;;18.50;97.90;;;;;;4842995;29;20030;-93
2023/07/05 00:59:39;;;;;;;6.82;4.72;;;18.50;98.00;;;;;;4843628;29;20045;-93
2023/07/05 01:02:05;;;;;;;5.25;4.20;;;18.50;98.00;;;;;;4844176;29;20026;-91
2023/07/05 01:04:34;;;;;;;6.75;4.35;;;18.50;98.00;;;;;;4827512;29;20042;-92
2023/07/05 01:07:01;;;;;;;6.25;3.85;;;18.50;98.00;;;;;;4843296;29;20026;-91
2023/07/05 01:09:26;;;;;;;4.93;3.95;;;18.50;98.10;;;;;;4830907;29;20117;-91
2023/07/05 01:12:03;;;;;;;4.85;3.60;;;18.50;98.10;;;;;;4846306;29;20125;-91
2023/07/05 01:14:41;;;;;;;4.97;3.65;;;18.40;98.10;;;;;;4847256;29;20026;-91
2023/07/05 01:17:38;;;;;;;4.72;3.58;;;18.50;98.20;;;;;;4831355;29;20026;-92
2023/07/05 01:20:33;;;;;;;5.93;3.60;;;18.40;98.30;;;;;;4846455;29;20022;-91
2023/07/05 01:23:11;;;;;;;3.13;2.80;;;18.50;98.30;;;;;;4846980;29;20491;-91
2023/07/05 01:25:55;;;;;;;5.05;3.83;;;18.50;98.30;;;;;;4847000;29;20188;-91
2023/07/05 01:28:37;;;;;;;3.78;2.90;;;18.40;98.30;;;;;;4846074;29;20133;-92
2023/07/05 01:31:30;;;;;;;4.53;3.40;;;18.50;98.30;;;;;;4847201;29;20026;-91
2023/07/05 01:34:21;;;;;;;6.53;3.30;;;18.50;98.30;;;;;;4847332;29;20054;-89
2023/07/05 01:36:47;;;;;;;6.60;3.78;;;18.50;98.30;;;;;;4830209;29;20045;-93
2023/07/05 01:39:13;;;;;;;4.03;3.47;;;18.50;98.40;;;;;;4830880;29;20540;-90
2023/07/05 01:41:39;;;;;;;4.78;3.35;;;18.50;98.40;;;;;;4800461;29;20034;-91
2023/07/05 01:44:06;;;;;;;5.72;3.67;;;18.50;98.40;;;;;;4816167;29;20042;-91
2023/07/05 01:46:57;;;;;;;4.65;3.13;;;18.50;98.50;;;;;;4830932;29;20034;-91
2023/07/05 01:49:26;;;;;;;;;;;18.40;98.60;;;;;;4846433;29;20030;-91
2023/07/05 01:52:14;;;;;;;4.63;3.40;;;18.40;98.50;;;;;;4846170;29;19916;-91
2023/07/05 01:54:51;;;;;;;5.93;3.45;;;18.40;98.60;;;;;;4846706;29;20050;-90
2023/07/05 01:57:22;;;;;;;4.68;3.80;;;18.40;98.70;;;;;;4830435;29;20037;-90
2023/07/05 02:00:08;;;;;;;5.35;3.38;;;18.40;98.70;;;;;;4830307;29;20026;-90
2023/07/05 02:02:39;;;;;;;8.68;3.42;;;18.50;98.70;;;;;;4830419;29;20026;-89
2023/07/05 02:05:08;;;;;;;4.30;3.13;;;18.40;98.70;;;;;;4830941;29;20026;-91
2023/07/05 02:07:33;;;;;;;4.10;3.03;;;18.50;98.80;;;;;;4848113;29;20058;-90
2023/07/05 02:10:00;;;;;;;3.85;2.97;;;18.40;98.80;;;;;;4816171;29;20480;-92
2023/07/05 02:12:26;;;;;;;3.58;2.78;;;18.40;98.80;;;;;;4815422;29;20046;-91
2023/07/05 02:14:52;;;;;;;4.30;3.20;;;18.50;99.00;;;;;;4846809;29;20059;-91
2023/07/05 02:17:19;;;;;;;5.75;2.90;;;18.50;99.00;;;;;;4831001;29;20052;-91
2023/07/05 02:19:45;;;;;;;5.60;3.10;;;18.50;99.00;;;;;;4832935;29;20084;-91
2023/07/05 02:22:11;;;;;;;4.70;3.00;;;18.50;99.00;;;;;;4830559;29;20060;-91
2023/07/05 02:24:37;;;;;;;3.95;2.70;;;18.60;99.10;;;;;;4837996;29;20014;-89
2023/07/05 02:27:03;;;;;;;3.40;2.67;;;18.60;99.10;;;;;;4836944;29;20047;-91
2023/07/05 02:29:32;;;;;;;3.85;2.40;;;18.60;99.20;;;;;;4832408;29;20121;-90
2023/07/05 02:32:01;;;;;;;3.05;2.65;;;18.60;99.20;;;;;;4830130;29;20053;-92
2023/07/05 02:34:27;;;;;;;2.92;2.63;;;18.50;99.20;;;;;;4830150;29;20034;-92
2023/07/05 02:36:52;;;;;;;7.68;2.65;;;18.50;99.30;;;;;;4846152;29;20034;-91
2023/07/05 02:39:18;;;;;;;3.17;2.20;;;18.50;99.30;;;;;;4830179;29;20038;-92
2023/07/05 02:41:44;;;;;;;2.97;2.20;;;18.50;99.40;;;;;;4814815;29;20037;-91
2023/07/05 02:44:10;;;;;;;3.15;2.28;;;18.50;99.40;;;;;;4799532;29;20033;-91
2023/07/05 02:46:36;;;;;;;3.05;2.22;;;18.40;99.50;;;;;;4845756;29;20089;-91
2023/07/05 02:49:02;;;;;;;3.10;2.20;;;18.40;99.50;;;;;;4845870;29;20049;-91
2023/07/05 02:51:28;;;;;;;2.88;2.30;;;18.40;99.50;;;;;;4844716;29;20034;-89
2023/07/05 02:53:55;;;;;;;4.85;1.77;;;18.40;99.40;;;;;;4845353;29;20042;-89
2023/07/05 02:56:21;;;;;;;2.38;2.08;;;18.40;99.40;;;;;;4814541;29;20045;-91
2023/07/05 02:58:46;;;;;;;2.72;2.00;;;18.30;99.40;;;;;;4828929;29;20037;-91
2023/07/05 03:01:12;;;;;;;3.58;2.03;;;18.30;99.30;;;;;;4814101;29;20026;-91
2023/07/05 03:03:38;;;;;;;2.50;1.75;;;18.30;99.30;;;;;;4829110;29;20066;-92
2023/07/05 03:06:04;;;;;;;5.07;2.17;;;18.20;99.20;;;;;;4845474;29;20030;-90
2023/07/05 03:08:30;;;;;;;3.45;2.03;;;18.20;99.10;;;;;;4829158;29;20030;-93
2023/07/05 03:11:00;;;;;;;3.60;2.58;;;18.10;99.00;;;;;;4813971;29;20060;-91
2023/07/05 03:13:31;;;;;;;2.67;1.88;;;18.10;98.70;;;;;;4814351;29;20498;-92
2023/07/05 03:15:57;;;;;;;4.43;2.60;;;18.00;98.70;;;;;;4829144;29;20033;-90
2023/07/05 03:18:23;;;;;;;3.28;2.50;;;17.90;98.60;;;;;;4829055;29;20045;-92
2023/07/05 03:20:49;;;;;;;2.90;2.53;;;17.80;98.50;;;;;;4828530;29;20029;-89
2023/07/05 03:23:16;;;;;;;4.15;2.70;;;17.80;98.40;;;;;;4828558;29;20034;-91
2023/07/05 03:25:59;;;;;;;3.50;2.40;;;17.70;98.10;;;;;;4828812;29;20175;-92
2023/07/05 03:28:29;;;;;;;3.83;2.67;;;17.70;97.90;;;;;;4828975;29;20461;-91
2023/07/05 03:30:59;;;;;;;3.38;2.50;;;17.50;97.80;;;;;;4828380;29;20107;-92
2023/07/05 03:33:25;;;;;;;3.53;2.30;;;17.50;97.80;;;;;;4845053;29;20446;-91
2023/07/05 03:36:05;;;;;;;4.03;2.45;;;17.50;97.80;;;;;;4813135;29;20049;-92
2023/07/05 03:38:32;;;;;;;3.80;2.40;;;17.40;97.60;;;;;;4828585;29;20045;-89
2023/07/05 03:41:05;;;;;;;3.47;2.55;;;17.40;97.50;;;;;;4828502;29;20026;-91
2023/07/05 03:43:36;;;;;;;3.83;2.42;;;17.30;97.50;;;;;;4828528;29;20081;-90
2023/07/05 03:46:04;;;;;;;4.07;2.83;;;17.30;97.50;;;;;;4844901;29;20106;-92
2023/07/05 03:48:34;;;;;;;2.88;2.40;;;17.20;97.50;;;;;;4828308;29;20022;-90
2023/07/05 03:50:59;;;;;;;3.97;2.65;;;17.20;97.40;;;;;;4828629;29;20037;-91
2023/07/05 03:53:26;;;;;;;7.47;3.00;;;17.20;97.30;;;;;;4813423;29;20392;-90
2023/07/05 03:55:51;;;;;;;4.65;2.70;;;17.10;97.20;;;;;;4828109;29;20065;-91
2023/07/05 03:58:17;;;;;;;3.55;2.63;;;17.00;97.20;;;;;;4844792;29;20034;-90
2023/07/05 04:00:44;;;;;;;5.20;2.75;;;17.00;97.10;;;;;;4813283;29;20049;-89
2023/07/05 04:03:09;;;;;;;3.10;2.70;;;16.90;97.10;;;;;;4830248;29;20042;-90
2023/07/05 04:05:35;;;;;;;3.97;2.70;;;16.90;97.10;;;;;;4801300;29;20038;-90
2023/07/05 04:08:01;;;;;;;5.30;2.65;;;16.80;97.20;;;;;;4834578;29;20037;-88
2023/07/05 04:10:27;;;;;;;7.35;3.65;;;16.80;97.00;;;;;;4836320;29;20021;-89
2023/07/05 04:12:52;;;;;;;3.85;2.72;;;16.70;96.90;;;;;;4851418;29;20063;-89
2023/07/05 04:15:19;;;;;;;4.68;2.90;;;16.70;97.00;;;;;;4835071;29;20034;-89
2023/07/05 04:17:45;;;;;;;3.60;2.70;;;16.60;97.00;;;;;;4842190;29;20120;-89
2023/07/05 04:20:11;;;;;;;6.47;3.40;;;16.60;97.00;;;;;;4828792;29;20069;-88
2023/07/05 04:22:39;;;;;;;6.78;3.28;;;16.60;97.00;;;;;;4798324;29;20437;-89
2023/07/05 04:25:05;;;;;;;4.55;3.08;;;16.60;97.00;;;;;;4844316;29;20026;-89
2023/07/05 04:27:31;;;;;;;4.25;3.00;;;16.50;97.00;;;;;;4813248;29;20038;-90
2023/07/05 04:29:57;;;;;;;4.25;3.05;;;16.50;97.10;;;;;;4827774;29;20030;-89
2023/07/05 04:32:23;;;;;;;5.40;3.15;;;16.50;97.00;;;;;;4812791;29;20507;-89
2023/07/05 04:34:48;;;;;;;4.60;3.05;;;16.50;97.00;;;;;;4812741;29;20543;-93
2023/07/05 04:37:14;;;;;;;4.50;3.30;;;16.50;96.90;;;;;;4828169;29;20527;-92
2023/07/05 04:39:40;;;;;;;6.30;3.28;;;16.50;97.00;;;;;;4797435;29;20030;-89
2023/07/05 04:42:06;;;;;;;4.38;3.05;;;16.50;97.00;;;;;;4812009;29;20038;-91
2023/07/05 04:44:31;;;;;;;4.40;3.15;;;16.50;96.90;;;;;;4812436;29;20034;-88
2023/07/05 04:46:57;;;;;;;5.30;3.50;;;16.50;96.90;;;;;;4812480;29;20037;-89
2023/07/05 04:49:23;;;;;;;4.53;3.22;;;16.40;96.90;;;;;;4828091;29;20054;-89
2023/07/05 04:51:49;;;;;;;5.72;3.65;;;16.50;96.90;;;;;;4827762;29;20026;-91
2023/07/05 04:54:16;;;;;;;4.97;3.53;;;16.50;96.90;;;;;;4827685;29;20125;-89
2023/07/05 04:56:42;;;;;;;5.53;3.35;;;16.50;96.90;;;;;;4812944;29;20041;-90
2023/07/05 04:59:10;;;;;;;7.18;3.67;;;16.50;96.90;;;;;;4827877;29;20045;-91
2023/07/05 05:01:37;;;;;;;5.88;3.90;;;16.40;96.90;;;;;;4812725;29;20030;-90
2023/07/05 05:04:03;;;;;;;4.25;3.50;;;16.40;96.90;;;;;;4827657;29;20067;-91
2023/07/05 05:06:28;;;;;;;5.32;3.30;;;16.40;96.90;;;;;;4827399;29;20030;-89
2023/07/05 05:08:54;;;;;;;5.93;3.25;;;16.30;96.90;;;;;;4812577;29;20032;-90
2023/07/05 05:11:20;;;;;;;7.07;3.22;;;16.40;96.90;;;;;;4812667;29;20038;-87
2023/07/05 05:13:46;;;;;;;4.93;3.50;;;16.40;96.90;;;;;;4827394;29;20113;-88
2023/07/05 05:16:11;;;;;;;5.43;3.70;;;16.50;96.90;;;;;;4827921;29;20495;-90
2023/07/05 05:18:37;;;;;;;5.00;3.30;;;16.40;96.70;;;;;;4844098;29;20034;-90
2023/07/05 05:21:04;;;;;;;5.20;3.65;;;16.50;96.70;;;;;;4827820;29;20114;-90
2023/07/05 05:23:30;;;;;;;6.68;3.25;;;16.40;96.80;;;;;;4827466;29;20034;-89
2023/07/05 05:25:56;;;;;;;5.95;3.55;;;16.40;96.70;;;;;;4843629;29;20034;-88
2023/07/05 05:28:22;;;;;;;6.72;3.70;;;16.50;96.70;;;;;;4812501;29;20094;-90
2023/07/05 05:30:49;;;;;;;6.43;3.30;;;16.50;96.70;;;;;;4812407;29;20030;-89
2023/07/05 05:33:16;;;;;;;5.07;3.28;;;16.50;96.60;;;;;;4827249;29;20038;-89
2023/07/05 05:35:47;;;;;;;5.28;3.22;;;16.60;96.70;;;;;;4827439;29;20476;-90
2023/07/05 05:38:12;;;;;;;8.23;3.50;;;16.60;96.70;;;;;;4827638;29;20038;-89
2023/07/05 05:40:38;;;;;;;10.18;3.60;;;16.60;96.60;;;;;;4827581;29;20034;-90
2023/07/05 05:43:04;;;;;;;6.75;3.40;;;16.60;96.60;;;;;;4812310;29;20038;-88
2023/07/05 05:45:29;;;;;;;5.75;3.70;;;16.70;96.60;;;;;;4843923;29;20472;-88
2023/07/05 05:47:55;;;;;;;4.72;3.30;;;16.70;96.50;;;;;;4797234;29;20038;-91
2023/07/05 05:50:22;;;;;;;5.43;2.90;;;16.70;96.40;;;;;;4827600;29;20038;-86
2023/07/05 05:52:48;;;;;;;4.75;2.90;;;16.70;96.40;;;;;;4815890;29;20042;-86
2023/07/05 05:55:14;;;;;;;5.63;3.28;;;16.70;96.40;;;;;;4822931;29;20102;-89
2023/07/05 05:57:39;;;;;;;3.30;2.83;;;16.80;96.30;;;;;;4853277;29;20053;-87
2023/07/05 06:00:09;;;;;;;5.90;3.70;;;16.80;96.30;;;;;;4853457;29;20029;-87
2023/07/05 06:02:35;;;;;;;8.10;3.55;;;16.70;95.90;;;;;;4852530;29;20026;-90
2023/07/05 06:05:00;;;;;;;8.50;3.30;;;16.70;95.80;;;;;;4822025;29;20708;-90
2023/07/05 06:07:29;;;;;;;4.57;2.70;;;16.70;95.70;;;;;;4815819;29;20072;-87
2023/07/05 06:09:55;;;;;;;4.25;3.03;;;16.60;95.80;;;;;;4815437;29;20030;-88
2023/07/05 06:12:21;;;;;;;3.90;2.67;;;16.60;95.90;;;;;;4846376;29;20090;-88
2023/07/05 06:14:47;;;;;;;4.53;3.33;;;16.60;95.90;;;;;;4814684;29;20029;-85
2023/07/05 06:17:12;;;;;;;3.67;3.00;;;16.60;96.00;;;;;;4846579;29;20064;-89
2023/07/05 06:19:38;;;;;;;5.07;3.03;;;16.70;95.90;;;;;;4830362;29;20063;-89
2023/07/05 06:22:04;;;;;;;3.78;2.80;;;16.70;95.90;;;;;;4846120;29;20034;-88
2023/07/05 06:24:31;;;;;;;6.85;2.92;;;16.70;95.90;;;;;;4829869;29;20086;-90
2023/07/05 06:26:58;;;;;;;3.90;2.60;;;16.70;95.90;;;;;;4829790;29;20487;-88
2023/07/05 06:29:23;;;;;;;6.38;3.25;;;16.80;95.80;;;;;;4815004;29;20072;-89
2023/07/05 06:31:49;;;;;;;5.47;2.88;;;16.80;95.80;;;;;;4799843;29;20128;-87
2023/07/05 06:34:15;;;;;;;4.88;2.85;;;16.80;95.80;;;;;;4831222;29;20438;-88
2023/07/05 06:36:40;;;;;;;4.78;2.78;;;16.80;95.80;;;;;;4829246;29;20041;-88
2023/07/05 06:39:06;;;;;;;5.63;2.80;;;16.80;95.80;;;;;;4814348;29;20034;-88
2023/07/05 06:41:32;;;;;;;4.75;2.95;;;16.80;95.80;;;;;;4829369;29;20026;-89
2023/07/05 06:43:58;;;;;;;10.80;2.83;;;16.80;95.70;;;;;;4814306;29;20040;-87
2023/07/05 06:46:23;;;;;;;6.43;2.95;;;16.80;95.70;;;;;;4829421;29;20040;-88
2023/07/05 06:48:50;;;;;;;4.88;2.78;;;16.80;95.70;;;;;;4829121;29;20094;-88
2023/07/05 06:51:16;;;;;;;5.47;2.60;;;16.70;95.80;;;;;;4813673;29;20038;-87
2023/07/05 06:53:42;;;;;;;4.00;2.47;;;16.60;95.90;;;;;;4829054;29;20053;-86
2023/07/05 06:56:09;;;;;;;4.53;2.47;;;16.60;96.00;;;;;;4829114;29;20081;-87
2023/07/05 06:58:35;;;;;;;3.45;2.50;;;16.60;95.80;;;;;;4799394;29;20384;-87
2023/07/05 07:01:01;;;;;;;5.32;2.33;;;16.40;95.80;;;;;;4828801;29;20169;-87
2023/07/05 07:03:27;;;;;;;4.45;2.58;;;16.40;95.90;;;;;;4828943;29;20034;-87
2023/07/05 07:05:54;;;;;;;3.85;2.25;;;16.40;95.90;;;;;;4812592;29;20033;-86
2023/07/05 07:08:21;;;;;;;3.35;2.30;;;16.40;96.10;;;;;;4828536;29;20480;-87
2023/07/05 07:10:47;;;;;;;3.08;2.35;;;16.40;96.20;;;;;;4813852;29;20037;-88
2023/07/05 07:13:14;;;;;;;4.60;2.45;;;16.30;96.30;;;;;;4813669;29;20049;-88
2023/07/05 07:15:41;;;;;;;4.85;2.10;;;16.30;96.40;;;;;;4845177;29;20041;-88
2023/07/05 07:18:10;;;;;;;2.65;2.10;;;16.20;96.60;;;;;;4828648;29;20033;-88
2023/07/05 07:20:35;;;;;;;4.32;2.10;;;16.20;96.70;;;;;;4799070;29;20030;-87
2023/07/05 07:23:01;;;;;;;3.85;2.00;;;16.10;96.80;;;;;;4813606;29;20048;-88
2023/07/05 07:25:28;;;;;;;2.10;1.70;;;16.10;96.90;;;;;;4828723;29;20037;-88
2023/07/05 07:27:53;;;;;;;3.10;1.65;;;16.10;97.10;;;;;;4845132;29;20072;-87
2023/07/05 07:30:19;;;;;;;2.47;1.20;;;16.00;97.00;;;;;;4813399;29;20030;-88
2023/07/05 07:32:46;;;;;;;2.40;1.30;;;16.00;97.10;;;;;;4828885;29;20073;-88
2023/07/05 07:35:12;;;;;;;1.63;1.13;;;16.00;97.10;;;;;;4829358;29;20040;-87
2023/07/05 07:37:38;;;;;;;2.15;1.30;;;16.00;97.10;;;;;;4838684;29;20030;-88
2023/07/05 07:40:06;;;;;;;1.77;1.20;;;16.00;97.00;;;;;;4842388;29;20010;-86
2023/07/05 07:42:32;;;;;;;3.03;1.02;;;15.90;97.10;;;;;;4851921;29;20025;-88
2023/07/05 07:44:58;;;;;;;2.10;1.10;;;15.90;97.30;;;;;;4867438;29;20018;-86
2023/07/05 07:47:24;;;;;;;1.77;1.10;;;15.90;97.30;;;;;;4821221;29;20063;-87
2023/07/05 07:49:50;;;;;;;2.38;1.05;;;15.90;97.40;;;;;;4826495;29;20063;-88
2023/07/05 07:52:18;;;;;;;1.92;1.08;;;16.00;97.50;;;;;;4828906;29;20053;-88
2023/07/05 07:54:43;;;;;;;2.08;1.30;;;16.00;97.50;;;;;;4827167;29;20085;-90
2023/07/05 07:57:09;;;;;;;3.22;1.30;;;16.00;97.50;;;;;;4828315;29;20077;-88
2023/07/05 07:59:40;;;;;;;4.38;1.90;;;16.00;97.50;;;;;;4812611;29;20057;-88
2023/07/05 08:02:09;;;;;;;;;;;15.90;97.50;;;;;;4828518;29;20040;-89
2023/07/05 08:04:42;;;;;;;4.22;2.38;;;15.80;97.60;;;;;;4828363;29;19973;-89
2023/07/05 08:07:08;;;;;;;6.00;2.20;;;15.80;97.80;;;;;;4844527;29;20064;-90
2023/07/05 08:09:33;;;;;;;4.60;2.45;;;15.80;97.90;;;;;;4797762;29;20030;-89
2023/07/05 08:11:59;;;;;;;3.35;1.80;;;15.70;98.00;;;;;;4797887;29;20022;-87
2023/07/05 08:14:25;;;;;;;3.80;1.83;;;15.70;98.00;;;;;;4797834;29;20062;-88
2023/07/05 08:16:51;;;;;;;4.63;2.05;;;15.70;98.20;;;;;;4827706;29;20215;-89
2023/07/05 08:19:16;;;;;;;5.43;1.75;;;15.70;98.20;;;;;;4812448;29;20026;-91
2023/07/05 08:21:44;;;;;;;3.08;1.95;;;15.70;98.30;;;;;;4842924;29;20030;-89
2023/07/05 08:24:10;;;;;;;3.85;1.73;;;15.70;98.40;;;;;;4843170;29;20167;-90
2023/07/05 08:26:36;;;;;;;2.92;1.50;;;15.60;98.40;;;;;;4812741;29;20057;-90
2023/07/05 08:29:02;;;;;;;2.95;2.00;;;15.70;98.40;;;;;;4827845;29;20387;-90
2023/07/05 08:31:29;;;;;;;4.57;2.10;;;15.70;98.40;;;;;;4828079;29;20061;-91
2023/07/05 08:33:55;;;;;;;4.72;1.75;;;15.60;98.50;;;;;;4812657;29;20037;-90
2023/07/05 08:36:32;;;;;;;4.78;2.10;;;15.60;98.50;;;;;;4812488;29;20026;-88
2023/07/05 08:38:59;;;;;;;4.15;2.20;;;15.60;98.60;;;;;;4828017;29;20087;-90
2023/07/05 08:41:41;;;;;;;3.58;2.30;;;15.60;98.60;;;;;;4797849;29;20126;-89
2023/07/05 08:44:23;;;;;;;4.00;2.10;;;15.70;98.70;;;;;;4843782;29;20022;-89
2023/07/05 08:46:56;;;;;;;4.30;2.15;;;15.70;98.80;;;;;;4844030;29;20041;-90
2023/07/05 08:49:34;;;;;;;3.72;2.25;;;15.80;98.80;;;;;;4827730;29;20034;-90
2023/07/05 08:52:01;;;;;;;4.05;2.40;;;15.80;98.70;;;;;;4843884;29;20032;-90
2023/07/05 08:54:32;;;;;;;3.28;2.20;;;15.90;98.80;;;;;;4812105;29;20128;-90
2023/07/05 08:57:10;;;;;;;4.47;2.42;;;15.90;98.90;;;;;;4812932;29;20062;-89
2023/07/05 08:59:51;;;;;;;4.70;2.55;;;16.00;99.10;;;;;;4843926;29;20073;-92
2023/07/05 09:02:20;;;;;;;3.80;2.33;;;16.20;99.10;;;;;;4827698;29;20034;-90
2023/07/05 09:04:49;;;;;;;5.55;2.60;;;16.30;99.10;;;;;;4843459;29;20030;-90
2023/07/05 09:07:20;;;;;;;6.20;2.25;;;16.40;99.10;;;;;;4827598;29;20030;-91
2023/07/05 09:10:13;;;;;;;5.50;2.80;;;16.50;99.00;;;;;;4827562;29;20361;-92
2023/07/05 09:13:20;;;;;;;4.45;2.47;;;16.60;99.00;;;;;;4827683;29;20065;-90
2023/07/05 09:15:56;;;;;;;4.50;2.28;;;16.70;98.90;;;;;;4827781;29;20041;-90
2023/07/05 09:18:43;;;;;;;5.03;2.53;;;16.70;98.80;;;;;;4828351;29;20090;-89
2023/07/05 09:21:33;;;;;;;5.07;2.63;;;16.90;98.80;;;;;;4846746;29;20046;-88
2023/07/05 09:24:11;;;;;;;4.13;2.33;;;17.00;98.70;;;;;;4852433;29;20030;-88
2023/07/05 09:26:43;;;;;;;4.90;2.50;;;17.10;98.60;;;;;;4865672;29;20036;-87
2023/07/05 09:29:26;;;;;;;7.28;2.58;;;17.20;98.60;;;;;;4868222;29;20026;-87
2023/07/05 09:31:53;;;;;;;5.85;2.10;;;17.40;98.40;;;;;;4853804;29;20033;-87
2023/07/05 09:34:45;;;;;;;5.18;2.58;;;17.40;98.30;;;;;;4834082;29;20026;-89
2023/07/05 09:37:35;;;;;;;6.45;2.20;;;17.50;98.00;;;;;;4846952;29;20030;-88
2023/07/05 09:40:19;;;;;;;4.82;2.42;;;17.50;97.80;;;;;;4847036;29;20030;-88
2023/07/05 09:43:19;;;;;;;4.82;2.42;;;17.50;97.40;;;;;;4829948;29;20052;-90
2023/07/05 09:45:45;;;;;;;7.60;2.55;;;17.50;97.30;;;;;;4829592;29;20037;-90
2023/07/05 09:48:12;;;;;;;4.72;2.33;;;17.50;97.40;;;;;;4813789;29;20030;-89
2023/07/05 09:50:48;;;;;;;5.65;1.98;;;17.50;97.30;;;;;;4815021;29;20086;-87
2023/07/05 09:53:16;;;;;;;5.18;2.40;;;17.60;97.30;;;;;;4829971;29;20037;-90
2023/07/05 09:56:01;;;;;;;6.55;2.70;;;17.70;97.20;;;;;;4829973;29;20057;-92
2023/07/05 09:58:27;;;;;;;5.65;2.47;;;17.60;96.90;;;;;;4831286;29;20042;-89
2023/07/05 10:00:52;;;;;;;4.35;2.10;;;17.60;96.90;;;;;;4847039;29;20044;-89
2023/07/05 10:03:21;;;;;;;6.05;2.40;;;17.60;96.80;;;;;;4830497;29;20487;-88
2023/07/05 10:05:54;;;;;;;8.43;1.98;;;17.60;96.70;;;;;;4848944;29;20060;-89
2023/07/05 10:08:22;;;;;;;3.85;2.10;;;17.40;96.50;;;;;;4830012;29;20061;-89
2023/07/05 10:10:48;;;;;;;4.78;1.77;;;17.40;96.50;;;;;;4845396;29;20083;-89
2023/07/05 10:13:26;;;;;;;6.03;2.65;;;17.30;96.50;;;;;;4845928;29;20034;-89
2023/07/05 10:16:01;;;;;;;4.80;2.10;;;17.20;96.50;;;;;;4846096;29;20076;-87
2023/07/05 10:18:30;;;;;;;7.50;2.05;;;17.20;96.50;;;;;;4845015;29;20026;-90
2023/07/05 10:20:57;;;;;;;6.68;2.00;;;17.20;96.50;;;;;;4829639;29;20036;-87
2023/07/05 10:23:25;;;;;;;3.47;1.55;;;17.10;96.40;;;;;;4828857;29;20030;-87
2023/07/05 10:25:53;;;;;;;5.15;1.80;;;17.10;96.50;;;;;;4814563;29;20033;-87
2023/07/05 10:28:28;;;;;;;3.53;1.85;;;17.10;96.40;;;;;;4828892;29;20038;-87
2023/07/05 10:30:59;;;;;;;3.95;1.70;;;17.10;96.20;;;;;;4829450;29;20045;-87
2023/07/05 10:33:33;;;;;;;4.57;1.85;;;17.00;96.10;;;;;;4845842;29;20129;-87
2023/07/05 10:36:13;;;;;;;4.65;1.65;;;17.10;96.00;;;;;;4829478;29;20025;-87
2023/07/05 10:38:39;;;;;;;5.30;1.80;;;17.10;95.90;;;;;;4844983;29;20385;-89
2023/07/05 10:41:17;;;;;;;4.55;1.80;;;17.10;95.80;;;;;;4845809;29;20037;-86
2023/07/05 10:43:48;;;;;;;5.80;1.83;;;17.10;95.60;;;;;;4845984;29;20033;-88
2023/07/05 10:46:15;;;;;;;;;;;17.20;95.50;;;;;;4845845;29;20556;-87
2023/07/05 10:48:43;;;;;;;3.92;1.58;;;17.20;95.20;;;;;;4845530;29;19947;-89
2023/07/05 10:51:20;;;;;;;5.05;1.40;;;17.20;95.00;;;;;;4829359;29;20022;-88
2023/07/05 10:54:02;;;;;;;6.03;1.30;;;17.30;94.90;;;;;;4813804;29;20042;-87
2023/07/05 10:56:33;;;;;;;6.00;1.50;;;17.40;94.70;;;;;;4829001;29;20057;-89
2023/07/05 10:59:04;;;;;;;3.58;1.50;;;17.50;94.80;;;;;;4829264;29;20025;-87
2023/07/05 11:01:40;;;;;;;5.75;1.70;;;17.60;94.80;;;;;;4844218;29;20022;-88
2023/07/05 11:04:16;;;;;;;4.03;1.58;;;17.80;94.40;;;;;;4829245;29;20074;-88
2023/07/05 11:06:45;;;;;;;6.43;1.63;;;17.80;94.10;;;;;;4814591;29;20472;-86
2023/07/05 11:09:11;;;;;;;2.15;1.23;;;17.90;93.60;;;;;;4845480;29;20040;-89
2023/07/05 11:11:50;;;;;;;3.47;1.65;;;17.90;93.70;;;;;;4801924;29;20429;-88
2023/07/05 11:14:17;;;;;;;5.88;1.50;;;18.10;93.70;;;;;;4851529;29;20031;-86
2023/07/05 11:16:45;;;;;;;5.10;1.30;;;18.20;93.40;;;;;;4837118;29;20010;-88
2023/07/05 11:19:24;;;;;;;4.32;1.73;;;18.30;93.10;;;;;;4852035;29;20037;-88
2023/07/05 11:21:50;;;;;;;3.60;1.17;;;18.50;93.00;;;;;;4866765;29;20094;-86
2023/07/05 11:24:25;;;;;;;3.53;1.20;;;18.60;92.60;;;;;;4823841;29;20038;-88
2023/07/05 11:26:51;;;;;;;4.70;1.25;;;18.80;92.80;;;;;;4829503;29;20062;-88
2023/07/05 11:29:32;;;;;;;6.45;1.30;;;18.80;92.20;;;;;;4828961;29;20045;-86
2023/07/05 11:32:03;;;;;;;;;;;18.90;91.90;;;;;;4828888;29;20065;-90
2023/07/05 11:34:29;;;;;;;4.10;1.90;;;19.00;91.90;;;;;;4844235;29;19909;-88
2023/07/05 11:37:01;;;;;;;3.83;1.23;;;19.10;91.60;;;;;;4844640;29;20034;-90
2023/07/05 11:39:45;;;;;;;4.15;1.42;;;19.10;91.50;;;;;;4828298;29;20468;-88
2023/07/05 11:42:15;;;;;;;3.38;1.50;;;19.20;91.30;;;;;;4828216;29;20030;-88
2023/07/05 11:44:47;;;;;;;3.83;1.60;;;19.30;91.20;;;;;;4828096;29;20177;-87
2023/07/05 11:47:24;;;;;;;5.63;1.40;;;19.30;91.00;;;;;;4844827;29;20479;-88
2023/07/05 11:49:55;;;;;;;6.05;1.67;;;19.40;90.70;;;;;;4828183;29;20082;-89
2023/07/05 11:52:25;;;;;;;3.30;1.10;;;19.40;90.50;;;;;;4844137;29;20117;-89
2023/07/05 11:55:09;;;;;;;2.13;1.20;;;19.50;90.80;;;;;;4843531;29;20056;-89
2023/07/05 11:58:05;;;;;;;3.13;1.42;;;19.50;90.60;;;;;;4827852;29;20500;-88
2023/07/05 12:00:37;;;;;;;8.95;2.03;;;19.60;90.70;;;;;;4844265;29;20022;-88
2023/07/05 12:03:23;;;;;;;3.80;1.27;;;19.60;90.80;;;;;;4844022;29;20117;-90
2023/07/05 12:06:03;;;;;;;3.80;1.58;;;19.70;90.90;;;;;;4844033;29;20078;-88
2023/07/05 12:08:40;;;;;;;3.50;1.58;;;19.70;90.80;;;;;;4828087;29;20041;-88
2023/07/05 12:11:07;;;;;;;4.20;1.52;;;19.80;90.80;;;;;;4844210;29;20026;-87
2023/07/05 12:13:34;;;;;;;3.05;1.70;;;19.90;90.40;;;;;;4827771;29;20564;-89
2023/07/05 12:16:03;;;;;;;4.95;1.90;;;19.90;90.30;;;;;;4827738;29;20038;-87
2023/07/05 12:18:30;;;;;;;3.35;1.50;;;19.90;90.20;;;;;;4842695;29;20365;-87
2023/07/05 12:20:58;;;;;;;3.55;1.40;;;19.80;90.00;;;;;;4827897;29;20026;-88
2023/07/05 12:23:28;;;;;;;2.95;1.60;;;19.80;89.80;;;;;;4842595;29;20030;-88
2023/07/05 12:25:58;;;;;;;6.15;1.88;;;19.70;90.00;;;;;;4827939;29;20079;-88
2023/07/05 12:28:27;;;;;;;3.13;1.70;;;19.60;89.50;;;;;;4827507;29;20030;-87
2023/07/05 12:31:03;;;;;;;5.15;1.60;;;19.60;90.10;;;;;;4843592;29;20105;-89
2023/07/05 12:33:31;;;;;;;3.70;1.95;;;19.50;90.50;;;;;;4843697;29;20034;-88
2023/07/05 12:36:09;;;;;;;4.95;1.50;;;19.40;90.80;;;;;;4843700;29;20112;-87
2023/07/05 12:38:35;;;;;;;4.72;1.63;;;19.30;90.90;;;;;;4827149;29;20030;-86
2023/07/05 12:41:02;;;;;;;7.82;1.70;;;19.30;91.10;;;;;;4812298;29;20037;-87
2023/07/05 12:43:32;;;;;;;7.03;2.25;;;19.20;91.00;;;;;;4827185;29;20430;-87
2023/07/05 12:46:05;;;;;;;;;;;19.20;91.40;;;;;;4813220;29;20034;-87
2023/07/05 12:48:31;;;;;;;3.13;1.80;;;19.30;91.10;;;;;;4843571;29;19915;-87
2023/07/05 12:51:06;;;;;;;4.13;1.77;;;19.20;91.20;;;;;;4843366;29;20116;-88
2023/07/05 12:53:32;;;;;;;4.45;1.83;;;19.10;91.40;;;;;;4827262;29;20069;-87
2023/07/05 12:56:04;;;;;;;5.07;2.22;;;19.00;91.60;;;;;;4812141;29;20053;-87
2023/07/05 12:58:30;;;;;;;4.03;1.60;;;19.00;91.90;;;;;;4827805;29;20066;-86
2023/07/05 13:00:58;;;;;;;4.60;1.90;;;18.80;92.00;;;;;;4827755;29;20038;-88
2023/07/05 13:03:26;;;;;;;5.22;2.05;;;18.70;92.30;;;;;;4829459;29;20155;-88